sensor_id;sensor_type;location;lat;lon;timestamp;P1;durP1;ratioP1;P2;durP2;ratioP2
18875;SDS011;9570;50.854;13.778;2023-02-21T00:01:14;5.43;;;3.13;;
18875;SDS011;9570;50.854;13.778;2023-02-21T00:03:59;4.20;;;3.60;;
18875;SDS011;9570;50.854;13.778;2023-02-21T00:06:43;4.17;;;3.47;;
18875;SDS011;9570;50.854;13.778;2023-02-21T00:09:27;5.90;;;4.30;;
18875;SDS011;9570;50.854;13.778;2023-02-21T00:12:11;5.27;;;4.27;;
18875;SDS011;9570;50.854;13.778;2023-02-21T00:14:55;5.43;;;4.13;;
18875;SDS011;9570;50.854;13.778;2023-02-21T00:17:39;6.70;;;4.90;;
18875;SDS011;9570;50.854;13.778;2023-02-21T00:20:23;6.90;;;4.67;;
18875;SDS011;9570;50.854;13.778;2023-02-21T00:23:08;5.60;;;4.47;;
18875;SDS011;9570;50.854;13.778;2023-02-21T00:25:52;6.50;;;4.57;;
18875;SDS011;9570;50.854;13.778;2023-02-21T00:28:36;8.10;;;4.90;;
18875;SDS011;9570;50.854;13.778;2023-02-21T00:31:20;6.37;;;4.60;;
18875;SDS011;9570;50.854;13.778;2023-02-21T00:34:04;6.33;;;4.30;;
18875;SDS011;9570;50.854;13.778;2023-02-21T00:36:48;6.83;;;4.23;;
18875;SDS011;9570;50.854;13.778;2023-02-21T00:39:32;9.47;;;4.37;;
18875;SDS011;9570;50.854;13.778;2023-02-21T00:42:16;5.87;;;3.50;;
18875;SDS011;9570;50.854;13.778;2023-02-21T00:45:00;4.23;;;3.43;;
18875;SDS011;9570;50.854;13.778;2023-02-21T00:47:44;5.03;;;3.50;;
18875;SDS011;9570;50.854;13.778;2023-02-21T00:50:28;4.60;;;3.40;;
18875;SDS011;9570;50.854;13.778;2023-02-21T00:53:12;4.10;;;2.90;;
18875;SDS011;9570;50.854;13.778;2023-02-21T00:55:56;5.67;;;3.57;;
18875;SDS011;9570;50.854;13.778;2023-02-21T00:58:40;5.97;;;3.50;;
18875;SDS011;9570;50.854;13.778;2023-02-21T01:01:24;4.23;;;3.77;;
18875;SDS011;9570;50.854;13.778;2023-02-21T01:04:08;7.27;;;3.80;;
18875;SDS011;9570;50.854;13.778;2023-02-21T01:06:52;5.10;;;3.93;;
18875;SDS011;9570;50.854;13.778;2023-02-21T01:09:36;4.50;;;3.43;;
18875;SDS011;9570;50.854;13.778;2023-02-21T01:12:20;4.87;;;3.53;;
18875;SDS011;9570;50.854;13.778;2023-02-21T01:15:04;4.53;;;3.57;;
18875;SDS011;9570;50.854;13.778;2023-02-21T01:17:48;4.40;;;3.50;;
18875;SDS011;9570;50.854;13.778;2023-02-21T01:20:32;6.37;;;3.07;;
18875;SDS011;9570;50.854;13.778;2023-02-21T01:23:16;3.33;;;2.90;;
18875;SDS011;9570;50.854;13.778;2023-02-21T01:26:00;4.73;;;3.33;;
18875;SDS011;9570;50.854;13.778;2023-02-21T01:28:46;4.77;;;3.33;;
18875;SDS011;9570;50.854;13.778;2023-02-21T01:31:30;4.37;;;3.13;;
18875;SDS011;9570;50.854;13.778;2023-02-21T01:34:14;4.23;;;3.00;;
18875;SDS011;9570;50.854;13.778;2023-02-21T01:36:58;5.97;;;3.07;;
18875;SDS011;9570;50.854;13.778;2023-02-21T01:39:42;3.70;;;3.00;;
18875;SDS011;9570;50.854;13.778;2023-02-21T01:42:26;5.23;;;2.77;;
18875;SDS011;9570;50.854;13.778;2023-02-21T01:48:03;4.23;;;2.70;;
18875;SDS011;9570;50.854;13.778;2023-02-21T01:50:56;5.40;;;3.10;;
18875;SDS011;9570;50.854;13.778;2023-02-21T01:53:41;4.13;;;2.97;;
18875;SDS011;9570;50.854;13.778;2023-02-21T01:56:27;3.77;;;3.13;;
18875;SDS011;9570;50.854;13.778;2023-02-21T01:59:12;3.77;;;2.70;;
18875;SDS011;9570;50.854;13.778;2023-02-21T02:02:02;4.03;;;2.70;;
18875;SDS011;9570;50.854;13.778;2023-02-21T02:04:51;3.53;;;2.80;;
18875;SDS011;9570;50.854;13.778;2023-02-21T02:07:37;3.73;;;2.60;;
18875;SDS011;9570;50.854;13.778;2023-02-21T02:10:21;4.00;;;2.90;;
18875;SDS011;9570;50.854;13.778;2023-02-21T02:13:10;3.80;;;2.53;;
18875;SDS011;9570;50.854;13.778;2023-02-21T02:16:03;4.70;;;2.80;;
18875;SDS011;9570;50.854;13.778;2023-02-21T02:19:10;3.23;;;2.40;;
18875;SDS011;9570;50.854;13.778;2023-02-21T02:22:25;3.00;;;2.53;;
18875;SDS011;9570;50.854;13.778;2023-02-21T02:25:15;2.57;;;2.30;;
18875;SDS011;9570;50.854;13.778;2023-02-21T02:27:54;3.77;;;2.63;;
18875;SDS011;9570;50.854;13.778;2023-02-21T02:36:55;4.07;;;2.40;;
18875;SDS011;9570;50.854;13.778;2023-02-21T02:42:36;2.97;;;2.10;;
18875;SDS011;9570;50.854;13.778;2023-02-21T02:45:29;4.70;;;2.93;;
18875;SDS011;9570;50.854;13.778;2023-02-21T02:48:04;3.00;;;2.47;;
18875;SDS011;9570;50.854;13.778;2023-02-21T02:50:57;3.23;;;2.50;;
18875;SDS011;9570;50.854;13.778;2023-02-21T02:53:25;4.27;;;2.67;;
18875;SDS011;9570;50.854;13.778;2023-02-21T02:55:56;3.57;;;2.87;;
18875;SDS011;9570;50.854;13.778;2023-02-21T02:58:29;2.60;;;2.20;;
18875;SDS011;9570;50.854;13.778;2023-02-21T03:07:01;4.50;;;2.67;;
18875;SDS011;9570;50.854;13.778;2023-02-21T03:09:43;4.23;;;2.60;;
18875;SDS011;9570;50.854;13.778;2023-02-21T03:15:24;3.43;;;2.60;;
18875;SDS011;9570;50.854;13.778;2023-02-21T03:18:16;3.67;;;2.80;;
18875;SDS011;9570;50.854;13.778;2023-02-21T03:20:50;3.97;;;3.27;;
18875;SDS011;9570;50.854;13.778;2023-02-21T03:23:20;3.80;;;2.90;;
18875;SDS011;9570;50.854;13.778;2023-02-21T03:25:49;3.60;;;2.97;;
18875;SDS011;9570;50.854;13.778;2023-02-21T03:28:16;3.30;;;2.83;;
18875;SDS011;9570;50.854;13.778;2023-02-21T03:30:43;4.23;;;2.93;;
18875;SDS011;9570;50.854;13.778;2023-02-21T03:33:09;3.67;;;3.07;;
18875;SDS011;9570;50.854;13.778;2023-02-21T03:35:35;4.97;;;3.13;;
18875;SDS011;9570;50.854;13.778;2023-02-21T03:38:01;3.50;;;2.80;;
18875;SDS011;9570;50.854;13.778;2023-02-21T03:40:27;4.27;;;3.10;;
18875;SDS011;9570;50.854;13.778;2023-02-21T03:42:55;3.87;;;3.10;;
18875;SDS011;9570;50.854;13.778;2023-02-21T03:45:21;4.20;;;3.10;;
18875;SDS011;9570;50.854;13.778;2023-02-21T03:47:48;4.70;;;3.10;;
18875;SDS011;9570;50.854;13.778;2023-02-21T03:50:14;4.20;;;2.93;;
18875;SDS011;9570;50.854;13.778;2023-02-21T03:52:39;3.70;;;2.90;;
18875;SDS011;9570;50.854;13.778;2023-02-21T03:55:06;3.80;;;2.90;;
18875;SDS011;9570;50.854;13.778;2023-02-21T03:57:32;4.10;;;2.70;;
18875;SDS011;9570;50.854;13.778;2023-02-21T03:59:57;5.20;;;3.57;;
18875;SDS011;9570;50.854;13.778;2023-02-21T04:02:23;3.60;;;2.90;;
18875;SDS011;9570;50.854;13.778;2023-02-21T04:04:48;3.60;;;2.93;;
18875;SDS011;9570;50.854;13.778;2023-02-21T04:07:15;3.60;;;2.90;;
18875;SDS011;9570;50.854;13.778;2023-02-21T04:09:41;5.03;;;3.20;;
18875;SDS011;9570;50.854;13.778;2023-02-21T04:12:07;3.57;;;2.93;;
18875;SDS011;9570;50.854;13.778;2023-02-21T04:14:33;5.37;;;3.50;;
18875;SDS011;9570;50.854;13.778;2023-02-21T04:16:58;3.70;;;3.03;;
18875;SDS011;9570;50.854;13.778;2023-02-21T04:19:24;4.83;;;3.10;;
18875;SDS011;9570;50.854;13.778;2023-02-21T04:21:49;4.33;;;3.00;;
18875;SDS011;9570;50.854;13.778;2023-02-21T04:24:15;4.83;;;3.20;;
18875;SDS011;9570;50.854;13.778;2023-02-21T04:26:40;5.63;;;3.40;;
18875;SDS011;9570;50.854;13.778;2023-02-21T04:29:06;3.67;;;3.00;;
18875;SDS011;9570;50.854;13.778;2023-02-21T04:31:31;6.23;;;4.10;;
18875;SDS011;9570;50.854;13.778;2023-02-21T04:33:57;5.63;;;3.20;;
18875;SDS011;9570;50.854;13.778;2023-02-21T04:36:23;4.70;;;3.07;;
18875;SDS011;9570;50.854;13.778;2023-02-21T04:38:49;4.20;;;3.33;;
18875;SDS011;9570;50.854;13.778;2023-02-21T04:41:15;6.40;;;3.77;;
18875;SDS011;9570;50.854;13.778;2023-02-21T04:43:42;4.13;;;3.57;;
18875;SDS011;9570;50.854;13.778;2023-02-21T04:46:08;4.03;;;2.97;;
18875;SDS011;9570;50.854;13.778;2023-02-21T04:48:34;5.00;;;3.60;;
18875;SDS011;9570;50.854;13.778;2023-02-21T04:51:00;4.47;;;3.60;;
18875;SDS011;9570;50.854;13.778;2023-02-21T04:53:25;4.57;;;3.27;;
18875;SDS011;9570;50.854;13.778;2023-02-21T04:55:51;3.93;;;3.53;;
18875;SDS011;9570;50.854;13.778;2023-02-21T04:58:16;4.20;;;3.33;;
18875;SDS011;9570;50.854;13.778;2023-02-21T05:00:42;3.97;;;3.33;;
18875;SDS011;9570;50.854;13.778;2023-02-21T05:03:07;4.13;;;3.57;;
18875;SDS011;9570;50.854;13.778;2023-02-21T05:05:33;4.40;;;3.50;;
18875;SDS011;9570;50.854;13.778;2023-02-21T05:07:58;5.40;;;3.77;;
18875;SDS011;9570;50.854;13.778;2023-02-21T05:10:24;5.43;;;3.40;;
18875;SDS011;9570;50.854;13.778;2023-02-21T05:12:49;5.37;;;3.60;;
18875;SDS011;9570;50.854;13.778;2023-02-21T05:15:14;4.43;;;3.60;;
18875;SDS011;9570;50.854;13.778;2023-02-21T05:17:40;5.17;;;3.50;;
18875;SDS011;9570;50.854;13.778;2023-02-21T05:20:06;6.40;;;3.37;;
18875;SDS011;9570;50.854;13.778;2023-02-21T05:22:35;5.13;;;4.30;;
18875;SDS011;9570;50.854;13.778;2023-02-21T05:25:05;4.83;;;3.90;;
18875;SDS011;9570;50.854;13.778;2023-02-21T05:27:37;4.60;;;3.40;;
18875;SDS011;9570;50.854;13.778;2023-02-21T05:30:03;4.93;;;3.50;;
18875;SDS011;9570;50.854;13.778;2023-02-21T05:32:29;6.73;;;4.17;;
18875;SDS011;9570;50.854;13.778;2023-02-21T05:34:54;5.80;;;4.13;;
18875;SDS011;9570;50.854;13.778;2023-02-21T05:37:20;6.53;;;4.23;;
18875;SDS011;9570;50.854;13.778;2023-02-21T05:39:46;5.33;;;4.00;;
18875;SDS011;9570;50.854;13.778;2023-02-21T05:42:11;5.80;;;4.50;;
18875;SDS011;9570;50.854;13.778;2023-02-21T05:44:37;4.90;;;4.00;;
18875;SDS011;9570;50.854;13.778;2023-02-21T05:47:03;5.53;;;4.40;;
18875;SDS011;9570;50.854;13.778;2023-02-21T05:49:28;5.90;;;4.57;;
18875;SDS011;9570;50.854;13.778;2023-02-21T05:51:54;4.63;;;3.60;;
18875;SDS011;9570;50.854;13.778;2023-02-21T05:54:20;5.33;;;4.43;;
18875;SDS011;9570;50.854;13.778;2023-02-21T05:56:46;6.07;;;4.10;;
18875;SDS011;9570;50.854;13.778;2023-02-21T05:59:12;5.30;;;3.97;;
18875;SDS011;9570;50.854;13.778;2023-02-21T06:01:38;6.00;;;4.37;;
18875;SDS011;9570;50.854;13.778;2023-02-21T06:04:04;5.97;;;4.30;;
18875;SDS011;9570;50.854;13.778;2023-02-21T06:06:31;6.43;;;4.10;;
18875;SDS011;9570;50.854;13.778;2023-02-21T06:08:57;6.07;;;4.23;;
18875;SDS011;9570;50.854;13.778;2023-02-21T06:11:24;6.80;;;4.50;;
18875;SDS011;9570;50.854;13.778;2023-02-21T06:13:52;6.27;;;4.60;;
18875;SDS011;9570;50.854;13.778;2023-02-21T06:16:19;6.43;;;4.43;;
18875;SDS011;9570;50.854;13.778;2023-02-21T06:18:48;7.73;;;5.00;;
18875;SDS011;9570;50.854;13.778;2023-02-21T06:21:18;6.00;;;4.73;;
18875;SDS011;9570;50.854;13.778;2023-02-21T06:23:44;7.43;;;5.10;;
18875;SDS011;9570;50.854;13.778;2023-02-21T06:26:09;7.17;;;4.90;;
18875;SDS011;9570;50.854;13.778;2023-02-21T06:28:35;5.73;;;4.57;;
18875;SDS011;9570;50.854;13.778;2023-02-21T06:31:01;6.30;;;4.70;;
18875;SDS011;9570;50.854;13.778;2023-02-21T06:33:27;6.10;;;4.57;;
18875;SDS011;9570;50.854;13.778;2023-02-21T06:35:53;5.27;;;4.23;;
18875;SDS011;9570;50.854;13.778;2023-02-21T06:38:18;7.17;;;5.10;;
18875;SDS011;9570;50.854;13.778;2023-02-21T06:40:44;7.17;;;5.60;;
18875;SDS011;9570;50.854;13.778;2023-02-21T06:43:09;8.03;;;5.67;;
18875;SDS011;9570;50.854;13.778;2023-02-21T06:45:35;7.63;;;5.37;;
18875;SDS011;9570;50.854;13.778;2023-02-21T06:48:00;7.07;;;5.07;;
18875;SDS011;9570;50.854;13.778;2023-02-21T06:50:26;6.83;;;5.33;;
18875;SDS011;9570;50.854;13.778;2023-02-21T06:52:51;7.57;;;5.10;;
18875;SDS011;9570;50.854;13.778;2023-02-21T06:55:20;7.53;;;5.13;;
18875;SDS011;9570;50.854;13.778;2023-02-21T06:57:46;7.37;;;5.17;;
18875;SDS011;9570;50.854;13.778;2023-02-21T07:00:13;6.87;;;4.73;;
18875;SDS011;9570;50.854;13.778;2023-02-21T07:02:39;7.73;;;5.40;;
18875;SDS011;9570;50.854;13.778;2023-02-21T07:05:05;7.53;;;5.20;;
18875;SDS011;9570;50.854;13.778;2023-02-21T07:07:31;8.37;;;5.20;;
18875;SDS011;9570;50.854;13.778;2023-02-21T07:09:57;8.73;;;5.40;;
18875;SDS011;9570;50.854;13.778;2023-02-21T07:12:22;8.60;;;5.70;;
18875;SDS011;9570;50.854;13.778;2023-02-21T07:14:47;8.13;;;5.57;;
18875;SDS011;9570;50.854;13.778;2023-02-21T07:17:13;8.13;;;5.90;;
18875;SDS011;9570;50.854;13.778;2023-02-21T07:19:38;7.03;;;5.03;;
18875;SDS011;9570;50.854;13.778;2023-02-21T07:22:06;8.20;;;4.67;;
18875;SDS011;9570;50.854;13.778;2023-02-21T07:24:31;9.77;;;5.83;;
18875;SDS011;9570;50.854;13.778;2023-02-21T07:26:57;6.80;;;5.50;;
18875;SDS011;9570;50.854;13.778;2023-02-21T07:29:23;6.93;;;5.23;;
18875;SDS011;9570;50.854;13.778;2023-02-21T07:31:49;8.90;;;5.57;;
18875;SDS011;9570;50.854;13.778;2023-02-21T07:34:14;8.00;;;5.57;;
18875;SDS011;9570;50.854;13.778;2023-02-21T07:36:40;8.57;;;5.80;;
18875;SDS011;9570;50.854;13.778;2023-02-21T07:39:06;9.67;;;5.27;;
18875;SDS011;9570;50.854;13.778;2023-02-21T07:41:31;8.20;;;5.70;;
18875;SDS011;9570;50.854;13.778;2023-02-21T07:43:57;9.90;;;6.50;;
18875;SDS011;9570;50.854;13.778;2023-02-21T07:46:24;8.87;;;5.87;;
18875;SDS011;9570;50.854;13.778;2023-02-21T07:48:51;7.70;;;5.93;;
18875;SDS011;9570;50.854;13.778;2023-02-21T07:51:17;8.73;;;6.10;;
18875;SDS011;9570;50.854;13.778;2023-02-21T07:53:42;8.37;;;5.70;;
18875;SDS011;9570;50.854;13.778;2023-02-21T07:56:07;9.03;;;5.40;;
18875;SDS011;9570;50.854;13.778;2023-02-21T07:58:33;7.83;;;5.63;;
18875;SDS011;9570;50.854;13.778;2023-02-21T08:01:01;9.67;;;6.13;;
18875;SDS011;9570;50.854;13.778;2023-02-21T08:03:28;8.93;;;6.30;;
18875;SDS011;9570;50.854;13.778;2023-02-21T08:05:53;9.53;;;6.10;;
18875;SDS011;9570;50.854;13.778;2023-02-21T08:08:19;10.80;;;6.73;;
18875;SDS011;9570;50.854;13.778;2023-02-21T08:10:44;9.37;;;6.53;;
18875;SDS011;9570;50.854;13.778;2023-02-21T08:13:10;7.70;;;5.90;;
18875;SDS011;9570;50.854;13.778;2023-02-21T08:15:35;11.33;;;6.70;;
18875;SDS011;9570;50.854;13.778;2023-02-21T08:18:01;7.87;;;6.07;;
18875;SDS011;9570;50.854;13.778;2023-02-21T08:20:26;9.10;;;6.40;;
18875;SDS011;9570;50.854;13.778;2023-02-21T08:22:52;8.20;;;5.67;;
18875;SDS011;9570;50.854;13.778;2023-02-21T08:25:17;9.23;;;5.90;;
18875;SDS011;9570;50.854;13.778;2023-02-21T08:27:43;8.97;;;5.87;;
18875;SDS011;9570;50.854;13.778;2023-02-21T08:30:10;8.83;;;6.07;;
18875;SDS011;9570;50.854;13.778;2023-02-21T08:32:38;9.53;;;6.50;;
18875;SDS011;9570;50.854;13.778;2023-02-21T08:35:04;9.07;;;6.73;;
18875;SDS011;9570;50.854;13.778;2023-02-21T08:37:30;8.67;;;6.27;;
18875;SDS011;9570;50.854;13.778;2023-02-21T08:39:57;9.00;;;6.57;;
18875;SDS011;9570;50.854;13.778;2023-02-21T08:42:23;9.17;;;6.73;;
18875;SDS011;9570;50.854;13.778;2023-02-21T08:44:49;10.17;;;6.47;;
18875;SDS011;9570;50.854;13.778;2023-02-21T08:47:15;8.83;;;6.30;;
18875;SDS011;9570;50.854;13.778;2023-02-21T08:49:47;7.97;;;6.30;;
18875;SDS011;9570;50.854;13.778;2023-02-21T08:52:13;8.97;;;6.00;;
18875;SDS011;9570;50.854;13.778;2023-02-21T08:54:40;10.90;;;6.40;;
18875;SDS011;9570;50.854;13.778;2023-02-21T08:57:06;8.87;;;5.70;;
18875;SDS011;9570;50.854;13.778;2023-02-21T08:59:32;9.53;;;6.27;;
18875;SDS011;9570;50.854;13.778;2023-02-21T09:01:59;7.27;;;5.27;;
18875;SDS011;9570;50.854;13.778;2023-02-21T09:04:25;6.83;;;5.20;;
18875;SDS011;9570;50.854;13.778;2023-02-21T09:06:52;6.67;;;5.20;;
18875;SDS011;9570;50.854;13.778;2023-02-21T09:09:18;6.67;;;4.80;;
18875;SDS011;9570;50.854;13.778;2023-02-21T09:11:44;6.90;;;5.20;;
18875;SDS011;9570;50.854;13.778;2023-02-21T09:14:12;7.23;;;4.63;;
18875;SDS011;9570;50.854;13.778;2023-02-21T09:16:38;7.83;;;5.30;;
18875;SDS011;9570;50.854;13.778;2023-02-21T09:19:03;6.67;;;4.90;;
18875;SDS011;9570;50.854;13.778;2023-02-21T09:21:31;7.77;;;5.40;;
18875;SDS011;9570;50.854;13.778;2023-02-21T09:23:57;8.63;;;5.50;;
18875;SDS011;9570;50.854;13.778;2023-02-21T09:26:23;7.33;;;4.83;;
18875;SDS011;9570;50.854;13.778;2023-02-21T09:28:50;7.37;;;4.80;;
18875;SDS011;9570;50.854;13.778;2023-02-21T09:31:17;6.83;;;4.63;;
18875;SDS011;9570;50.854;13.778;2023-02-21T09:33:43;5.87;;;4.80;;
18875;SDS011;9570;50.854;13.778;2023-02-21T09:36:09;6.40;;;5.03;;
18875;SDS011;9570;50.854;13.778;2023-02-21T09:38:35;6.50;;;3.80;;
18875;SDS011;9570;50.854;13.778;2023-02-21T09:41:04;6.57;;;4.43;;
18875;SDS011;9570;50.854;13.778;2023-02-21T09:43:35;6.53;;;4.60;;
18875;SDS011;9570;50.854;13.778;2023-02-21T09:46:04;5.37;;;4.67;;
18875;SDS011;9570;50.854;13.778;2023-02-21T09:48:36;9.00;;;4.57;;
18875;SDS011;9570;50.854;13.778;2023-02-21T09:51:05;5.33;;;4.20;;
18875;SDS011;9570;50.854;13.778;2023-02-21T09:53:34;6.20;;;4.50;;
18875;SDS011;9570;50.854;13.778;2023-02-21T09:56:04;6.80;;;4.47;;
18875;SDS011;9570;50.854;13.778;2023-02-21T09:58:32;7.20;;;4.63;;
18875;SDS011;9570;50.854;13.778;2023-02-21T10:01:01;7.50;;;4.90;;
18875;SDS011;9570;50.854;13.778;2023-02-21T10:03:40;5.83;;;4.03;;
18875;SDS011;9570;50.854;13.778;2023-02-21T10:06:34;5.83;;;4.13;;
18875;SDS011;9570;50.854;13.778;2023-02-21T10:24:13;4.67;;;3.43;;
18875;SDS011;9570;50.854;13.778;2023-02-21T10:27:06;6.23;;;3.70;;
18875;SDS011;9570;50.854;13.778;2023-02-21T10:32:19;5.93;;;3.77;;
18875;SDS011;9570;50.854;13.778;2023-02-21T10:34:46;5.63;;;3.63;;
18875;SDS011;9570;50.854;13.778;2023-02-21T10:39:54;5.93;;;3.63;;
18875;SDS011;9570;50.854;13.778;2023-02-21T10:42:39;4.83;;;3.50;;
18875;SDS011;9570;50.854;13.778;2023-02-21T10:45:13;4.60;;;3.33;;
18875;SDS011;9570;50.854;13.778;2023-02-21T10:51:27;5.30;;;3.40;;
18875;SDS011;9570;50.854;13.778;2023-02-21T10:53:37;4.17;;;3.30;;
18875;SDS011;9570;50.854;13.778;2023-02-21T10:58:44;4.93;;;3.80;;
18875;SDS011;9570;50.854;13.778;2023-02-21T11:01:18;5.07;;;3.70;;
18875;SDS011;9570;50.854;13.778;2023-02-21T11:06:46;5.13;;;3.90;;
18875;SDS011;9570;50.854;13.778;2023-02-21T11:15:14;5.33;;;3.57;;
18875;SDS011;9570;50.854;13.778;2023-02-21T11:17:42;4.80;;;3.60;;
18875;SDS011;9570;50.854;13.778;2023-02-21T11:25:20;3.73;;;3.30;;
18875;SDS011;9570;50.854;13.778;2023-02-21T11:30:25;4.20;;;3.40;;
18875;SDS011;9570;50.854;13.778;2023-02-21T11:32:53;5.17;;;3.53;;
18875;SDS011;9570;50.854;13.778;2023-02-21T11:35:25;6.30;;;3.87;;
18875;SDS011;9570;50.854;13.778;2023-02-21T11:38:31;5.53;;;3.50;;
18875;SDS011;9570;50.854;13.778;2023-02-21T11:41:44;5.80;;;3.70;;
18875;SDS011;9570;50.854;13.778;2023-02-21T11:43:55;5.53;;;3.90;;
18875;SDS011;9570;50.854;13.778;2023-02-21T11:51:40;4.57;;;3.57;;
18875;SDS011;9570;50.854;13.778;2023-02-21T11:54:07;5.57;;;3.63;;
18875;SDS011;9570;50.854;13.778;2023-02-21T11:56:47;5.43;;;3.97;;
18875;SDS011;9570;50.854;13.778;2023-02-21T11:59:24;4.40;;;3.63;;
18875;SDS011;9570;50.854;13.778;2023-02-21T12:02:24;4.47;;;3.60;;
18875;SDS011;9570;50.854;13.778;2023-02-21T12:25:08;4.33;;;3.27;;
18875;SDS011;9570;50.854;13.778;2023-02-21T12:31:11;4.97;;;3.47;;
18875;SDS011;9570;50.854;13.778;2023-02-21T12:33:43;5.50;;;3.40;;
18875;SDS011;9570;50.854;13.778;2023-02-21T12:36:34;5.00;;;3.20;;
18875;SDS011;9570;50.854;13.778;2023-02-21T12:39:12;4.20;;;3.07;;
18875;SDS011;9570;50.854;13.778;2023-02-21T12:45:01;4.63;;;3.47;;
18875;SDS011;9570;50.854;13.778;2023-02-21T12:50:01;4.97;;;3.63;;
18875;SDS011;9570;50.854;13.778;2023-02-21T12:52:41;6.03;;;3.70;;
18875;SDS011;9570;50.854;13.778;2023-02-21T12:55:26;5.33;;;3.60;;
18875;SDS011;9570;50.854;13.778;2023-02-21T13:00:42;5.73;;;3.53;;
18875;SDS011;9570;50.854;13.778;2023-02-21T13:03:28;6.63;;;4.20;;
18875;SDS011;9570;50.854;13.778;2023-02-21T13:09:01;4.57;;;3.87;;
18875;SDS011;9570;50.854;13.778;2023-02-21T13:11:55;5.53;;;3.97;;
18875;SDS011;9570;50.854;13.778;2023-02-21T13:17:19;4.47;;;4.00;;
18875;SDS011;9570;50.854;13.778;2023-02-21T13:22:23;5.20;;;4.20;;
18875;SDS011;9570;50.854;13.778;2023-02-21T13:24:54;4.03;;;3.63;;
18875;SDS011;9570;50.854;13.778;2023-02-21T13:27:43;4.37;;;3.87;;
18875;SDS011;9570;50.854;13.778;2023-02-21T13:33:03;5.17;;;3.70;;
18875;SDS011;9570;50.854;13.778;2023-02-21T13:35:31;5.70;;;4.47;;
18875;SDS011;9570;50.854;13.778;2023-02-21T13:38:03;7.27;;;3.93;;
18875;SDS011;9570;50.854;13.778;2023-02-21T13:40:33;6.23;;;4.30;;
18875;SDS011;9570;50.854;13.778;2023-02-21T13:43:22;5.63;;;4.03;;
18875;SDS011;9570;50.854;13.778;2023-02-21T13:45:50;5.33;;;4.17;;
18875;SDS011;9570;50.854;13.778;2023-02-21T13:48:21;6.20;;;4.20;;
18875;SDS011;9570;50.854;13.778;2023-02-21T13:50:49;5.83;;;4.10;;
18875;SDS011;9570;50.854;13.778;2023-02-21T13:53:24;5.30;;;3.80;;
18875;SDS011;9570;50.854;13.778;2023-02-21T13:58:32;6.17;;;4.00;;
18875;SDS011;9570;50.854;13.778;2023-02-21T14:03:42;3.93;;;3.40;;
18875;SDS011;9570;50.854;13.778;2023-02-21T14:08:35;4.43;;;3.33;;
18875;SDS011;9570;50.854;13.778;2023-02-21T14:18:52;5.53;;;3.27;;
18875;SDS011;9570;50.854;13.778;2023-02-21T14:23:59;4.47;;;3.13;;
18875;SDS011;9570;50.854;13.778;2023-02-21T14:31:49;5.03;;;3.40;;
18875;SDS011;9570;50.854;13.778;2023-02-21T14:37:05;4.97;;;3.70;;
18875;SDS011;9570;50.854;13.778;2023-02-21T14:39:35;6.80;;;3.63;;
18875;SDS011;9570;50.854;13.778;2023-02-21T14:42:27;5.60;;;3.80;;
18875;SDS011;9570;50.854;13.778;2023-02-21T14:47:39;6.17;;;3.63;;
18875;SDS011;9570;50.854;13.778;2023-02-21T14:50:29;4.83;;;3.73;;
18875;SDS011;9570;50.854;13.778;2023-02-21T14:53:05;7.73;;;4.13;;
18875;SDS011;9570;50.854;13.778;2023-02-21T14:55:58;4.07;;;3.37;;
18875;SDS011;9570;50.854;13.778;2023-02-21T15:04:42;4.80;;;3.70;;
18875;SDS011;9570;50.854;13.778;2023-02-21T15:07:16;4.67;;;3.83;;
18875;SDS011;9570;50.854;13.778;2023-02-21T15:12:57;6.43;;;3.80;;
18875;SDS011;9570;50.854;13.778;2023-02-21T15:15:31;4.53;;;3.73;;
18875;SDS011;9570;50.854;13.778;2023-02-21T15:18:24;5.27;;;4.00;;
18875;SDS011;9570;50.854;13.778;2023-02-21T15:24:27;6.00;;;3.63;;
18875;SDS011;9570;50.854;13.778;2023-02-21T15:26:46;5.10;;;3.70;;
18875;SDS011;9570;50.854;13.778;2023-02-21T15:29:13;8.13;;;4.23;;
18875;SDS011;9570;50.854;13.778;2023-02-21T15:31:54;6.10;;;4.30;;
18875;SDS011;9570;50.854;13.778;2023-02-21T15:34:25;6.33;;;4.00;;
18875;SDS011;9570;50.854;13.778;2023-02-21T15:39:31;5.40;;;3.73;;
18875;SDS011;9570;50.854;13.778;2023-02-21T15:41:58;5.23;;;3.97;;
18875;SDS011;9570;50.854;13.778;2023-02-21T15:44:29;5.30;;;3.63;;
18875;SDS011;9570;50.854;13.778;2023-02-21T15:47:01;4.73;;;3.30;;
18875;SDS011;9570;50.854;13.778;2023-02-21T15:49:32;5.40;;;3.67;;
18875;SDS011;9570;50.854;13.778;2023-02-21T15:52:05;4.57;;;3.50;;
18875;SDS011;9570;50.854;13.778;2023-02-21T15:54:32;5.87;;;4.20;;
18875;SDS011;9570;50.854;13.778;2023-02-21T15:57:05;5.77;;;4.30;;
18875;SDS011;9570;50.854;13.778;2023-02-21T15:59:46;4.53;;;3.43;;
18875;SDS011;9570;50.854;13.778;2023-02-21T16:02:19;6.47;;;4.00;;
18875;SDS011;9570;50.854;13.778;2023-02-21T16:04:48;5.53;;;3.90;;
18875;SDS011;9570;50.854;13.778;2023-02-21T16:07:16;6.60;;;4.17;;
18875;SDS011;9570;50.854;13.778;2023-02-21T16:10:04;5.77;;;3.50;;
18875;SDS011;9570;50.854;13.778;2023-02-21T16:12:33;5.10;;;3.90;;
18875;SDS011;9570;50.854;13.778;2023-02-21T16:15:05;5.67;;;3.80;;
18875;SDS011;9570;50.854;13.778;2023-02-21T16:17:43;5.43;;;3.63;;
18875;SDS011;9570;50.854;13.778;2023-02-21T16:20:14;5.90;;;3.77;;
18875;SDS011;9570;50.854;13.778;2023-02-21T16:22:46;5.97;;;3.97;;
18875;SDS011;9570;50.854;13.778;2023-02-21T16:25:15;5.07;;;3.57;;
18875;SDS011;9570;50.854;13.778;2023-02-21T16:27:47;6.53;;;3.57;;
18875;SDS011;9570;50.854;13.778;2023-02-21T16:30:25;6.87;;;4.00;;
18875;SDS011;9570;50.854;13.778;2023-02-21T16:32:53;5.80;;;4.20;;
18875;SDS011;9570;50.854;13.778;2023-02-21T16:35:26;4.47;;;3.47;;
18875;SDS011;9570;50.854;13.778;2023-02-21T16:37:54;5.90;;;4.10;;
18875;SDS011;9570;50.854;13.778;2023-02-21T16:40:22;6.00;;;4.40;;
18875;SDS011;9570;50.854;13.778;2023-02-21T16:42:55;4.70;;;3.77;;
18875;SDS011;9570;50.854;13.778;2023-02-21T16:45:22;7.00;;;4.60;;
18875;SDS011;9570;50.854;13.778;2023-02-21T16:47:49;7.47;;;4.50;;
18875;SDS011;9570;50.854;13.778;2023-02-21T16:50:25;6.37;;;4.37;;
18875;SDS011;9570;50.854;13.778;2023-02-21T16:52:56;6.83;;;5.00;;
18875;SDS011;9570;50.854;13.778;2023-02-21T16:55:22;7.17;;;4.93;;
18875;SDS011;9570;50.854;13.778;2023-02-21T16:57:48;6.20;;;4.50;;
18875;SDS011;9570;50.854;13.778;2023-02-21T17:00:15;6.20;;;4.50;;
18875;SDS011;9570;50.854;13.778;2023-02-21T17:02:44;8.60;;;4.60;;
18875;SDS011;9570;50.854;13.778;2023-02-21T17:05:10;8.20;;;4.50;;
18875;SDS011;9570;50.854;13.778;2023-02-21T17:07:35;8.40;;;5.23;;
18875;SDS011;9570;50.854;13.778;2023-02-21T17:10:02;6.50;;;4.30;;
18875;SDS011;9570;50.854;13.778;2023-02-21T17:12:28;7.00;;;4.33;;
18875;SDS011;9570;50.854;13.778;2023-02-21T17:14:53;8.27;;;4.33;;
18875;SDS011;9570;50.854;13.778;2023-02-21T17:17:18;8.10;;;4.47;;
18875;SDS011;9570;50.854;13.778;2023-02-21T17:19:44;7.67;;;4.20;;
18875;SDS011;9570;50.854;13.778;2023-02-21T17:22:09;7.07;;;4.63;;
18875;SDS011;9570;50.854;13.778;2023-02-21T17:24:35;8.03;;;4.30;;
18875;SDS011;9570;50.854;13.778;2023-02-21T17:27:00;6.77;;;4.97;;
18875;SDS011;9570;50.854;13.778;2023-02-21T17:29:26;7.73;;;5.03;;
18875;SDS011;9570;50.854;13.778;2023-02-21T17:31:55;6.20;;;4.73;;
18875;SDS011;9570;50.854;13.778;2023-02-21T17:34:22;6.67;;;4.93;;
18875;SDS011;9570;50.854;13.778;2023-02-21T17:36:48;6.50;;;4.40;;
18875;SDS011;9570;50.854;13.778;2023-02-21T17:39:18;6.40;;;4.77;;
18875;SDS011;9570;50.854;13.778;2023-02-21T17:41:45;8.20;;;5.00;;
18875;SDS011;9570;50.854;13.778;2023-02-21T17:44:11;6.50;;;4.60;;
18875;SDS011;9570;50.854;13.778;2023-02-21T17:46:37;5.93;;;4.67;;
18875;SDS011;9570;50.854;13.778;2023-02-21T17:49:02;9.03;;;5.10;;
18875;SDS011;9570;50.854;13.778;2023-02-21T17:51:28;6.37;;;4.50;;
18875;SDS011;9570;50.854;13.778;2023-02-21T17:53:53;5.53;;;4.30;;